sensor_id;sensor_type;location;lat;lon;timestamp;temperature;humidity
29007;DHT22;16104;48.642;9.008;2022-10-19T01:00:48;16.10;67.50
29007;DHT22;16104;48.642;9.008;2022-10-19T01:05:43;16.10;67.90
29007;DHT22;16104;48.642;9.008;2022-10-19T02:01:50;15.70;70.30
29007;DHT22;16104;48.642;9.008;2022-10-19T02:06:49;15.80;70.80
29007;DHT22;16104;48.642;9.008;2022-10-19T02:11:52;15.70;71.00
29007;DHT22;16104;48.642;9.008;2022-10-19T03:02:53;16.00;72.80
29007;DHT22;16104;48.642;9.008;2022-10-19T03:07:48;16.10;72.30
29007;DHT22;16104;48.642;9.008;2022-10-19T03:12:44;16.10;73.20
29007;DHT22;16104;48.642;9.008;2022-10-19T03:17:39;16.20;72.50
29007;DHT22;16104;48.642;9.008;2022-10-19T03:22:38;16.20;72.70
29007;DHT22;16104;48.642;9.008;2022-10-19T03:27:33;16.20;73.00
29007;DHT22;16104;48.642;9.008;2022-10-19T03:32:29;16.30;72.90
29007;DHT22;16104;48.642;9.008;2022-10-19T03:37:24;16.30;72.70
29007;DHT22;16104;48.642;9.008;2022-10-19T03:42:20;16.40;72.80
29007;DHT22;16104;48.642;9.008;2022-10-19T03:47:15;16.40;72.60
29007;DHT22;16104;48.642;9.008;2022-10-19T03:52:11;16.50;72.70
29007;DHT22;16104;48.642;9.008;2022-10-19T03:57:06;16.50;72.90
29007;DHT22;16104;48.642;9.008;2022-10-19T04:02:02;16.50;72.70
29007;DHT22;16104;48.642;9.008;2022-10-19T04:06:58;16.60;72.70
29007;DHT22;16104;48.642;9.008;2022-10-19T04:11:53;16.70;72.80
29007;DHT22;16104;48.642;9.008;2022-10-19T04:16:49;16.60;72.80
29007;DHT22;16104;48.642;9.008;2022-10-19T04:21:47;16.70;72.80
29007;DHT22;16104;48.642;9.008;2022-10-19T04:26:45;16.70;73.00
29007;DHT22;16104;48.642;9.008;2022-10-19T04:31:41;16.70;73.00
29007;DHT22;16104;48.642;9.008;2022-10-19T04:36:37;16.80;72.80
29007;DHT22;16104;48.642;9.008;2022-10-19T04:41:33;16.80;72.80
29007;DHT22;16104;48.642;9.008;2022-10-19T04:46:29;16.80;72.80
29007;DHT22;16104;48.642;9.008;2022-10-19T04:51:26;16.80;73.00
29007;DHT22;16104;48.642;9.008;2022-10-19T04:56:23;16.90;72.80
29007;DHT22;16104;48.642;9.008;2022-10-19T05:01:21;16.90;72.10
29007;DHT22;16104;48.642;9.008;2022-10-19T05:06:17;16.90;71.70
29007;DHT22;16104;48.642;9.008;2022-10-19T05:11:13;16.80;71.30
29007;DHT22;16104;48.642;9.008;2022-10-19T05:16:14;16.80;71.50
29007;DHT22;16104;48.642;9.008;2022-10-19T05:21:11;16.80;71.80
29007;DHT22;16104;48.642;9.008;2022-10-19T05:26:09;16.80;71.80
29007;DHT22;16104;48.642;9.008;2022-10-19T05:31:12;16.80;72.00
29007;DHT22;16104;48.642;9.008;2022-10-19T05:41:09;16.80;72.50
29007;DHT22;16104;48.642;9.008;2022-10-19T05:46:06;16.90;72.30
29007;DHT22;16104;48.642;9.008;2022-10-19T05:51:04;16.90;72.40
29007;DHT22;16104;48.642;9.008;2022-10-19T05:56:03;16.90;72.50
29007;DHT22;16104;48.642;9.008;2022-10-19T06:01:00;17.00;72.30
29007;DHT22;16104;48.642;9.008;2022-10-19T06:05:56;17.00;72.40
29007;DHT22;16104;48.642;9.008;2022-10-19T06:10:52;17.00;72.50
29007;DHT22;16104;48.642;9.008;2022-10-19T06:15:50;17.00;72.50
29007;DHT22;16104;48.642;9.008;2022-10-19T06:20:46;17.00;72.70
29007;DHT22;16104;48.642;9.008;2022-10-19T06:25:41;17.10;72.30
29007;DHT22;16104;48.642;9.008;2022-10-19T06:30:39;17.10;72.20
29007;DHT22;16104;48.642;9.008;2022-10-19T06:35:34;17.10;72.20
29007;DHT22;16104;48.642;9.008;2022-10-19T06:40:30;17.10;72.10
29007;DHT22;16104;48.642;9.008;2022-10-19T06:45:26;17.10;72.10
29007;DHT22;16104;48.642;9.008;2022-10-19T06:50:21;17.20;72.10
29007;DHT22;16104;48.642;9.008;2022-10-19T06:55:17;17.20;72.20
29007;DHT22;16104;48.642;9.008;2022-10-19T07:00:13;17.20;72.30
29007;DHT22;16104;48.642;9.008;2022-10-19T07:05:09;17.20;72.10
29007;DHT22;16104;48.642;9.008;2022-10-19T07:10:05;17.20;72.20
29007;DHT22;16104;48.642;9.008;2022-10-19T07:15:00;17.20;72.20
29007;DHT22;16104;48.642;9.008;2022-10-19T07:19:56;17.20;72.40
29007;DHT22;16104;48.642;9.008;2022-10-19T07:24:51;17.30;72.40
29007;DHT22;16104;48.642;9.008;2022-10-19T07:29:47;17.30;72.20
29007;DHT22;16104;48.642;9.008;2022-10-19T07:34:42;17.30;72.20
29007;DHT22;16104;48.642;9.008;2022-10-19T07:39:38;17.30;72.30
29007;DHT22;16104;48.642;9.008;2022-10-19T07:44:33;17.30;72.40
29007;DHT22;16104;48.642;9.008;2022-10-19T07:49:29;17.30;72.20
29007;DHT22;16104;48.642;9.008;2022-10-19T07:54:24;17.40;72.40
29007;DHT22;16104;48.642;9.008;2022-10-19T07:59:21;17.40;72.30
29007;DHT22;16104;48.642;9.008;2022-10-19T08:04:17;17.40;72.10
29007;DHT22;16104;48.642;9.008;2022-10-19T08:09:13;17.40;72.10
29007;DHT22;16104;48.642;9.008;2022-10-19T08:14:08;17.40;71.90
29007;DHT22;16104;48.642;9.008;2022-10-19T08:19:06;17.50;71.60
29007;DHT22;16104;48.642;9.008;2022-10-19T08:24:02;17.50;71.80
29007;DHT22;16104;48.642;9.008;2022-10-19T08:29:03;17.50;71.90
29007;DHT22;16104;48.642;9.008;2022-10-19T08:33:59;17.50;72.00
29007;DHT22;16104;48.642;9.008;2022-10-19T08:38:54;17.50;71.70
29007;DHT22;16104;48.642;9.008;2022-10-19T08:49:28;17.60;72.00
29007;DHT22;16104;48.642;9.008;2022-10-19T08:54:34;17.60;71.50
29007;DHT22;16104;48.642;9.008;2022-10-19T08:59:58;17.70;71.50
29007;DHT22;16104;48.642;9.008;2022-10-19T09:05:02;17.80;71.30
29007;DHT22;16104;48.642;9.008;2022-10-19T09:15:12;17.90;70.80
29007;DHT22;16104;48.642;9.008;2022-10-19T09:20:36;18.00;70.70
29007;DHT22;16104;48.642;9.008;2022-10-19T09:25:34;18.00;70.70
29007;DHT22;16104;48.642;9.008;2022-10-19T09:30:34;18.10;70.50
29007;DHT22;16104;48.642;9.008;2022-10-19T09:35:41;18.10;70.30
29007;DHT22;16104;48.642;9.008;2022-10-19T09:40:37;18.10;70.20
29007;DHT22;16104;48.642;9.008;2022-10-19T09:46:03;18.20;70.20
29007;DHT22;16104;48.642;9.008;2022-10-19T09:51:02;18.20;70.00
29007;DHT22;16104;48.642;9.008;2022-10-19T09:56:06;18.30;69.80
29007;DHT22;16104;48.642;9.008;2022-10-19T10:01:02;18.30;69.60
29007;DHT22;16104;48.642;9.008;2022-10-19T10:06:06;18.30;69.50
29007;DHT22;16104;48.642;9.008;2022-10-19T10:16:06;18.30;70.30
29007;DHT22;16104;48.642;9.008;2022-10-19T10:21:13;18.30;69.30
29007;DHT22;16104;48.642;9.008;2022-10-19T10:26:18;18.40;69.30
29007;DHT22;16104;48.642;9.008;2022-10-19T10:31:14;18.40;68.90
29007;DHT22;16104;48.642;9.008;2022-10-19T10:36:13;18.40;68.90
29007;DHT22;16104;48.642;9.008;2022-10-19T10:41:17;18.40;68.70
29007;DHT22;16104;48.642;9.008;2022-10-19T10:46:18;18.40;68.60
29007;DHT22;16104;48.642;9.008;2022-10-19T10:51:37;18.30;68.10
29007;DHT22;16104;48.642;9.008;2022-10-19T10:56:33;18.30;68.20
29007;DHT22;16104;48.642;9.008;2022-10-19T11:01:38;18.30;68.10
29007;DHT22;16104;48.642;9.008;2022-10-19T11:06:40;18.30;68.30
29007;DHT22;16104;48.642;9.008;2022-10-19T11:11:41;18.20;68.50
29007;DHT22;16104;48.642;9.008;2022-10-19T11:16:44;18.30;68.50
29007;DHT22;16104;48.642;9.008;2022-10-19T11:21:56;18.30;68.40
29007;DHT22;16104;48.642;9.008;2022-10-19T11:27:36;18.30;68.40
29007;DHT22;16104;48.642;9.008;2022-10-19T11:37:55;18.30;68.60
29007;DHT22;16104;48.642;9.008;2022-10-19T11:43:11;18.40;68.70
29007;DHT22;16104;48.642;9.008;2022-10-19T11:53:16;18.50;68.80
29007;DHT22;16104;48.642;9.008;2022-10-19T11:58:29;18.60;68.70
29007;DHT22;16104;48.642;9.008;2022-10-19T12:04:34;18.70;68.60
29007;DHT22;16104;48.642;9.008;2022-10-19T12:09:29;18.80;69.00
29007;DHT22;16104;48.642;9.008;2022-10-19T12:14:34;19.00;67.80
29007;DHT22;16104;48.642;9.008;2022-10-19T12:19:36;19.00;67.30
29007;DHT22;16104;48.642;9.008;2022-10-19T12:24:33;19.10;66.90
29007;DHT22;16104;48.642;9.008;2022-10-19T12:29:35;19.10;67.10
29007;DHT22;16104;48.642;9.008;2022-10-19T12:40:03;19.30;66.90
29007;DHT22;16104;48.642;9.008;2022-10-19T12:45:27;19.40;66.70
29007;DHT22;16104;48.642;9.008;2022-10-19T12:56:21;19.50;65.90
29007;DHT22;16104;48.642;9.008;2022-10-19T13:06:31;19.60;66.00
29007;DHT22;16104;48.642;9.008;2022-10-19T13:11:27;19.70;65.80
29007;DHT22;16104;48.642;9.008;2022-10-19T13:26:42;19.90;65.40
29007;DHT22;16104;48.642;9.008;2022-10-19T13:31:39;20.10;65.30
29007;DHT22;16104;48.642;9.008;2022-10-19T13:36:35;20.10;64.50
29007;DHT22;16104;48.642;9.008;2022-10-19T14:02:11;20.30;62.90
29007;DHT22;16104;48.642;9.008;2022-10-19T14:07:14;20.40;63.00
29007;DHT22;16104;48.642;9.008;2022-10-19T14:12:28;20.50;62.10
29007;DHT22;16104;48.642;9.008;2022-10-19T14:17:26;20.40;61.40
29007;DHT22;16104;48.642;9.008;2022-10-19T14:22:25;20.40;61.40
29007;DHT22;16104;48.642;9.008;2022-10-19T14:27:23;20.30;61.50
29007;DHT22;16104;48.642;9.008;2022-10-19T14:32:25;20.30;61.50
29007;DHT22;16104;48.642;9.008;2022-10-19T14:37:24;20.20;61.60
29007;DHT22;16104;48.642;9.008;2022-10-19T14:42:20;20.20;61.50
29007;DHT22;16104;48.642;9.008;2022-10-19T14:47:23;20.10;61.40
29007;DHT22;16104;48.642;9.008;2022-10-19T14:52:32;20.10;61.30
29007;DHT22;16104;48.642;9.008;2022-10-19T14:57:34;20.00;61.40
29007;DHT22;16104;48.642;9.008;2022-10-19T15:02:36;20.00;61.00
29007;DHT22;16104;48.642;9.008;2022-10-19T15:07:37;20.00;60.90
29007;DHT22;16104;48.642;9.008;2022-10-19T15:12:41;19.90;61.10
29007;DHT22;16104;48.642;9.008;2022-10-19T15:17:53;19.90;60.70
29007;DHT22;16104;48.642;9.008;2022-10-19T15:22:49;19.70;61.20
29007;DHT22;16104;48.642;9.008;2022-10-19T15:27:45;19.70;61.70
29007;DHT22;16104;48.642;9.008;2022-10-19T15:32:46;19.70;61.60
29007;DHT22;16104;48.642;9.008;2022-10-19T15:37:43;19.70;61.40
29007;DHT22;16104;48.642;9.008;2022-10-19T15:42:41;19.60;61.50
29007;DHT22;16104;48.642;9.008;2022-10-19T15:47:54;19.60;61.70
29007;DHT22;16104;48.642;9.008;2022-10-19T15:53:00;19.50;62.40
29007;DHT22;16104;48.642;9.008;2022-10-19T15:57:59;19.50;61.80
29007;DHT22;16104;48.642;9.008;2022-10-19T16:02:54;19.50;61.50
29007;DHT22;16104;48.642;9.008;2022-10-19T16:07:50;19.40;61.60
29007;DHT22;16104;48.642;9.008;2022-10-19T16:12:45;19.30;61.80
29007;DHT22;16104;48.642;9.008;2022-10-19T16:17:42;19.30;62.00
29007;DHT22;16104;48.642;9.008;2022-10-19T16:22:39;19.20;62.00
29007;DHT22;16104;48.642;9.008;2022-10-19T16:27:34;19.20;62.00
29007;DHT22;16104;48.642;9.008;2022-10-19T16:32:30;19.10;62.00
29007;DHT22;16104;48.642;9.008;2022-10-19T16:37:26;19.10;62.10
29007;DHT22;16104;48.642;9.008;2022-10-19T16:42:22;19.00;62.00
29007;DHT22;16104;48.642;9.008;2022-10-19T16:47:17;19.00;62.00
29007;DHT22;16104;48.642;9.008;2022-10-19T16:52:14;18.90;62.00
29007;DHT22;16104;48.642;9.008;2022-10-19T16:57:09;18.80;62.10
29007;DHT22;16104;48.642;9.008;2022-10-19T17:02:06;18.80;62.20
29007;DHT22;16104;48.642;9.008;2022-10-19T17:07:02;18.70;62.20
29007;DHT22;16104;48.642;9.008;2022-10-19T17:11:57;18.70;62.40
29007;DHT22;16104;48.642;9.008;2022-10-19T17:16:53;18.60;62.40
29007;DHT22;16104;48.642;9.008;2022-10-19T17:21:48;18.60;62.60
29007;DHT22;16104;48.642;9.008;2022-10-19T17:26:44;18.50;62.70
29007;DHT22;16104;48.642;9.008;2022-10-19T17:31:40;18.50;62.70
29007;DHT22;16104;48.642;9.008;2022-10-19T17:36:42;18.40;62.80
29007;DHT22;16104;48.642;9.008;2022-10-19T17:41:41;18.40;62.80
29007;DHT22;16104;48.642;9.008;2022-10-19T17:46:37;18.40;63.00
29007;DHT22;16104;48.642;9.008;2022-10-19T17:51:34;18.30;63.00
29007;DHT22;16104;48.642;9.008;2022-10-19T17:56:30;18.30;63.20
29007;DHT22;16104;48.642;9.008;2022-10-19T18:01:26;18.30;63.20
29007;DHT22;16104;48.642;9.008;2022-10-19T18:06:25;18.30;63.30
29007;DHT22;16104;48.642;9.008;2022-10-19T18:11:24;18.30;63.50
29007;DHT22;16104;48.642;9.008;2022-10-19T18:16:26;18.20;63.50
29007;DHT22;16104;48.642;9.008;2022-10-19T18:21:25;18.20;63.60
29007;DHT22;16104;48.642;9.008;2022-10-19T18:26:25;18.20;63.70
29007;DHT22;16104;48.642;9.008;2022-10-19T18:31:23;18.20;63.90
29007;DHT22;16104;48.642;9.008;2022-10-19T18:36:19;18.20;63.90
29007;DHT22;16104;48.642;9.008;2022-10-19T18:41:15;18.10;63.90
29007;DHT22;16104;48.642;9.008;2022-10-19T18:46:10;18.10;64.00
29007;DHT22;16104;48.642;9.008;2022-10-19T18:51:06;18.10;64.10
29007;DHT22;16104;48.642;9.008;2022-10-19T18:56:05;18.10;64.10
29007;DHT22;16104;48.642;9.008;2022-10-19T19:06:04;18.10;64.20
29007;DHT22;16104;48.642;9.008;2022-10-19T19:11:17;18.10;64.20
29007;DHT22;16104;48.642;9.008;2022-10-19T19:16:13;18.00;64.30
29007;DHT22;16104;48.642;9.008;2022-10-19T19:21:14;18.00;64.10
29007;DHT22;16104;48.642;9.008;2022-10-19T19:26:11;18.00;64.40
29007;DHT22;16104;48.642;9.008;2022-10-19T19:31:07;18.00;64.40
29007;DHT22;16104;48.642;9.008;2022-10-19T19:36:05;18.00;64.50
29007;DHT22;16104;48.642;9.008;2022-10-19T19:41:09;17.90;64.50
29007;DHT22;16104;48.642;9.008;2022-10-19T19:46:07;17.90;64.50
29007;DHT22;16104;48.642;9.008;2022-10-19T19:51:05;17.90;64.30
29007;DHT22;16104;48.642;9.008;2022-10-19T19:56:01;17.90;64.30
29007;DHT22;16104;48.642;9.008;2022-10-19T20:00:57;17.80;64.20
29007;DHT22;16104;48.642;9.008;2022-10-19T20:05:52;17.80;64.20
29007;DHT22;16104;48.642;9.008;2022-10-19T20:10:48;17.70;64.30
29007;DHT22;16104;48.642;9.008;2022-10-19T20:15:43;17.70;64.50
29007;DHT22;16104;48.642;9.008;2022-10-19T20:20:39;17.50;64.50
29007;DHT22;16104;48.642;9.008;2022-10-19T20:25:37;17.50;64.70
29007;DHT22;16104;48.642;9.008;2022-10-19T20:30:33;17.40;64.80
29007;DHT22;16104;48.642;9.008;2022-10-19T20:35:28;17.30;64.80
29007;DHT22;16104;48.642;9.008;2022-10-19T20:40:24;17.20;64.90
29007;DHT22;16104;48.642;9.008;2022-10-19T20:45:19;17.10;64.90
29007;DHT22;16104;48.642;9.008;2022-10-19T20:50:15;17.00;65.00
29007;DHT22;16104;48.642;9.008;2022-10-19T20:55:10;17.00;65.00
29007;DHT22;16104;48.642;9.008;2022-10-19T21:00:06;16.90;65.20
29007;DHT22;16104;48.642;9.008;2022-10-19T21:05:02;16.80;65.20
29007;DHT22;16104;48.642;9.008;2022-10-19T21:09:58;16.80;65.40
29007;DHT22;16104;48.642;9.008;2022-10-19T21:14:53;16.70;65.30
29007;DHT22;16104;48.642;9.008;2022-10-19T21:19:49;16.60;65.30
29007;DHT22;16104;48.642;9.008;2022-10-19T21:24:44;16.50;65.10
29007;DHT22;16104;48.642;9.008;2022-10-19T21:29:40;16.50;65.30
29007;DHT22;16104;48.642;9.008;2022-10-19T21:34:35;16.40;65.30
29007;DHT22;16104;48.642;9.008;2022-10-19T21:39:31;16.30;65.50
29007;DHT22;16104;48.642;9.008;2022-10-19T21:44:26;16.20;65.50
29007;DHT22;16104;48.642;9.008;2022-10-19T21:49:22;16.20;65.60
29007;DHT22;16104;48.642;9.008;2022-10-19T21:54:19;16.10;65.70
29007;DHT22;16104;48.642;9.008;2022-10-19T21:59:16;16.00;65.70
29007;DHT22;16104;48.642;9.008;2022-10-19T22:04:16;16.00;65.70
29007;DHT22;16104;48.642;9.008;2022-10-19T22:09:18;15.90;65.90
29007;DHT22;16104;48.642;9.008;2022-10-19T22:14:14;15.80;66.10
29007;DHT22;16104;48.642;9.008;2022-10-19T22:19:10;15.80;66.20
29007;DHT22;16104;48.642;9.008;2022-10-19T22:24:10;15.70;66.30
29007;DHT22;16104;48.642;9.008;2022-10-19T22:29:06;15.60;67.10
29007;DHT22;16104;48.642;9.008;2022-10-19T22:34:05;15.60;66.40
29007;DHT22;16104;48.642;9.008;2022-10-19T22:39:00;15.60;66.40
29007;DHT22;16104;48.642;9.008;2022-10-19T22:43:56;15.50;66.40
29007;DHT22;16104;48.642;9.008;2022-10-19T22:48:51;15.40;66.40
29007;DHT22;16104;48.642;9.008;2022-10-19T22:53:47;15.40;66.80
29007;DHT22;16104;48.642;9.008;2022-10-19T22:58:42;15.40;67.20
29007;DHT22;16104;48.642;9.008;2022-10-19T23:03:38;15.30;67.10
29007;DHT22;16104;48.642;9.008;2022-10-19T23:08:34;15.30;67.40
29007;DHT22;16104;48.642;9.008;2022-10-19T23:13:30;15.20;67.80
29007;DHT22;16104;48.642;9.008;2022-10-19T23:18:25;15.20;67.90
29007;DHT22;16104;48.642;9.008;2022-10-19T23:23:21;15.20;67.90
29007;DHT22;16104;48.642;9.008;2022-10-19T23:28:18;15.10;68.00
29007;DHT22;16104;48.642;9.008;2022-10-19T23:33:13;15.00;67.90
29007;DHT22;16104;48.642;9.008;2022-10-19T23:38:09;15.00;67.90
29007;DHT22;16104;48.642;9.008;2022-10-19T23:43:04;14.90;67.80
29007;DHT22;16104;48.642;9.008;2022-10-19T23:48:00;14.90;67.80
29007;DHT22;16104;48.642;9.008;2022-10-19T23:52:55;14.90;68.00
29007;DHT22;16104;48.642;9.008;2022-10-19T23:57:51;14.80;68.00
